sensor_id;sensor_type;location;lat;lon;timestamp;P1;P2;P0
28647;PMS5003;17137;51.494;-0.262;2023-10-13T00:00:25;34;31;
28647;PMS5003;17137;51.494;-0.262;2023-10-13T00:00:55;35;32;
28647;PMS5003;17137;51.494;-0.262;2023-10-13T00:01:25;36;32;
28647;PMS5003;17137;51.494;-0.262;2023-10-13T00:01:56;38;34;
28647;PMS5003;17137;51.494;-0.262;2023-10-13T00:02:27;38;35;
28647;PMS5003;17137;51.494;-0.262;2023-10-13T00:02:58;37;33;
28647;PMS5003;17137;51.494;-0.262;2023-10-13T00:03:28;38;33;
28647;PMS5003;17137;51.494;-0.262;2023-10-13T00:03:59;38;33;
28647;PMS5003;17137;51.494;-0.262;2023-10-13T00:04:29;38;33;
28647;PMS5003;17137;51.494;-0.262;2023-10-13T00:05:01;33;32;
28647;PMS5003;17137;51.494;-0.262;2023-10-13T00:05:32;33;32;
28647;PMS5003;17137;51.494;-0.262;2023-10-13T00:06:03;34;32;
28647;PMS5003;17137;51.494;-0.262;2023-10-13T00:06:33;34;30;
28647;PMS5003;17137;51.494;-0.262;2023-10-13T00:07:03;34;30;
28647;PMS5003;17137;51.494;-0.262;2023-10-13T00:07:34;33;30;
28647;PMS5003;17137;51.494;-0.262;2023-10-13T00:08:05;32;28;
28647;PMS5003;17137;51.494;-0.262;2023-10-13T00:08:36;32;28;
28647;PMS5003;17137;51.494;-0.262;2023-10-13T00:09:06;32;28;
28647;PMS5003;17137;51.494;-0.262;2023-10-13T00:09:37;30;26;
28647;PMS5003;17137;51.494;-0.262;2023-10-13T00:10:07;30;26;
28647;PMS5003;17137;51.494;-0.262;2023-10-13T00:10:38;30;26;
28647;PMS5003;17137;51.494;-0.262;2023-10-13T00:11:11;30;26;
28647;PMS5003;17137;51.494;-0.262;2023-10-13T00:11:42;30;26;
28647;PMS5003;17137;51.494;-0.262;2023-10-13T00:12:12;30;26;
28647;PMS5003;17137;51.494;-0.262;2023-10-13T00:12:44;31;27;
28647;PMS5003;17137;51.494;-0.262;2023-10-13T00:13:14;31;27;
28647;PMS5003;17137;51.494;-0.262;2023-10-13T00:13:44;31;27;
28647;PMS5003;17137;51.494;-0.262;2023-10-13T00:14:15;29;26;
28647;PMS5003;17137;51.494;-0.262;2023-10-13T00:14:46;30;26;
28647;PMS5003;17137;51.494;-0.262;2023-10-13T00:15:17;30;26;
28647;PMS5003;17137;51.494;-0.262;2023-10-13T00:15:48;28;25;
28647;PMS5003;17137;51.494;-0.262;2023-10-13T00:16:18;28;24;
28647;PMS5003;17137;51.494;-0.262;2023-10-13T00:16:49;28;24;
28647;PMS5003;17137;51.494;-0.262;2023-10-13T00:17:20;27;23;
28647;PMS5003;17137;51.494;-0.262;2023-10-13T00:17:50;27;23;
28647;PMS5003;17137;51.494;-0.262;2023-10-13T00:18:20;27;23;
28647;PMS5003;17137;51.494;-0.262;2023-10-13T00:18:51;23;22;
28647;PMS5003;17137;51.494;-0.262;2023-10-13T00:19:21;23;22;
28647;PMS5003;17137;51.494;-0.262;2023-10-13T00:19:52;24;22;
28647;PMS5003;17137;51.494;-0.262;2023-10-13T00:20:22;26;22;
28647;PMS5003;17137;51.494;-0.262;2023-10-13T00:20:53;26;22;
28647;PMS5003;17137;51.494;-0.262;2023-10-13T00:21:23;26;22;
28647;PMS5003;17137;51.494;-0.262;2023-10-13T00:21:54;25;22;
28647;PMS5003;17137;51.494;-0.262;2023-10-13T00:22:25;25;22;
28647;PMS5003;17137;51.494;-0.262;2023-10-13T00:22:55;25;22;
28647;PMS5003;17137;51.494;-0.262;2023-10-13T00:23:26;24;22;
28647;PMS5003;17137;51.494;-0.262;2023-10-13T00:23:56;24;22;
28647;PMS5003;17137;51.494;-0.262;2023-10-13T00:24:28;24;22;
28647;PMS5003;17137;51.494;-0.262;2023-10-13T00:24:58;24;22;
28647;PMS5003;17137;51.494;-0.262;2023-10-13T00:25:29;23;22;
28647;PMS5003;17137;51.494;-0.262;2023-10-13T00:25:59;23;22;
28647;PMS5003;17137;51.494;-0.262;2023-10-13T00:26:29;25;23;
28647;PMS5003;17137;51.494;-0.262;2023-10-13T00:27:00;26;22;
28647;PMS5003;17137;51.494;-0.262;2023-10-13T00:27:30;29;23;
28647;PMS5003;17137;51.494;-0.262;2023-10-13T00:28:01;29;23;
28647;PMS5003;17137;51.494;-0.262;2023-10-13T00:28:31;28;23;
28647;PMS5003;17137;51.494;-0.262;2023-10-13T00:29:02;32;27;
28647;PMS5003;17137;51.494;-0.262;2023-10-13T00:29:33;31;27;
28647;PMS5003;17137;51.494;-0.262;2023-10-13T00:30:04;36;29;
28647;PMS5003;17137;51.494;-0.262;2023-10-13T00:30:37;36;31;
28647;PMS5003;17137;51.494;-0.262;2023-10-13T00:31:07;36;31;
28647;PMS5003;17137;51.494;-0.262;2023-10-13T00:31:38;36;30;
28647;PMS5003;17137;51.494;-0.262;2023-10-13T00:32:10;37;32;
28647;PMS5003;17137;51.494;-0.262;2023-10-13T00:32:40;35;31;
28647;PMS5003;17137;51.494;-0.262;2023-10-13T00:33:10;35;31;
28647;PMS5003;17137;51.494;-0.262;2023-10-13T00:33:40;35;31;
28647;PMS5003;17137;51.494;-0.262;2023-10-13T00:34:11;35;31;
28647;PMS5003;17137;51.494;-0.262;2023-10-13T00:34:42;35;31;
28647;PMS5003;17137;51.494;-0.262;2023-10-13T00:35:17;35;31;
28647;PMS5003;17137;51.494;-0.262;2023-10-13T00:35:49;34;30;
28647;PMS5003;17137;51.494;-0.262;2023-10-13T00:36:19;34;30;
28647;PMS5003;17137;51.494;-0.262;2023-10-13T00:36:50;34;30;
28647;PMS5003;17137;51.494;-0.262;2023-10-13T00:37:20;33;30;
28647;PMS5003;17137;51.494;-0.262;2023-10-13T00:37:51;33;30;
28647;PMS5003;17137;51.494;-0.262;2023-10-13T00:38:22;33;30;
28647;PMS5003;17137;51.494;-0.262;2023-10-13T00:38:52;32;28;
28647;PMS5003;17137;51.494;-0.262;2023-10-13T00:39:22;32;28;
28647;PMS5003;17137;51.494;-0.262;2023-10-13T00:39:53;32;28;
28647;PMS5003;17137;51.494;-0.262;2023-10-13T00:40:23;28;26;
28647;PMS5003;17137;51.494;-0.262;2023-10-13T00:40:54;29;26;
28647;PMS5003;17137;51.494;-0.262;2023-10-13T00:41:25;29;26;
28647;PMS5003;17137;51.494;-0.262;2023-10-13T00:41:55;29;27;
28647;PMS5003;17137;51.494;-0.262;2023-10-13T00:42:25;29;27;
28647;PMS5003;17137;51.494;-0.262;2023-10-13T00:42:56;28;27;
28647;PMS5003;17137;51.494;-0.262;2023-10-13T00:43:26;32;27;
28647;PMS5003;17137;51.494;-0.262;2023-10-13T00:43:56;32;27;
28647;PMS5003;17137;51.494;-0.262;2023-10-13T00:44:27;33;27;
28647;PMS5003;17137;51.494;-0.262;2023-10-13T00:44:57;31;27;
28647;PMS5003;17137;51.494;-0.262;2023-10-13T00:45:27;31;27;
28647;PMS5003;17137;51.494;-0.262;2023-10-13T00:46:00;31;27;
28647;PMS5003;17137;51.494;-0.262;2023-10-13T00:46:32;27;25;
28647;PMS5003;17137;51.494;-0.262;2023-10-13T00:47:04;27;25;
28647;PMS5003;17137;51.494;-0.262;2023-10-13T00:47:35;27;25;
28647;PMS5003;17137;51.494;-0.262;2023-10-13T00:48:05;26;23;
28647;PMS5003;17137;51.494;-0.262;2023-10-13T00:48:36;26;23;
28647;PMS5003;17137;51.494;-0.262;2023-10-13T00:49:09;26;23;
28647;PMS5003;17137;51.494;-0.262;2023-10-13T00:49:41;26;24;
28647;PMS5003;17137;51.494;-0.262;2023-10-13T00:50:13;26;24;
28647;PMS5003;17137;51.494;-0.262;2023-10-13T00:50:45;26;24;
28647;PMS5003;17137;51.494;-0.262;2023-10-13T00:51:16;27;26;
28647;PMS5003;17137;51.494;-0.262;2023-10-13T00:51:47;28;26;
28647;PMS5003;17137;51.494;-0.262;2023-10-13T00:52:17;28;26;
28647;PMS5003;17137;51.494;-0.262;2023-10-13T00:52:48;28;25;
28647;PMS5003;17137;51.494;-0.262;2023-10-13T00:53:20;28;25;
28647;PMS5003;17137;51.494;-0.262;2023-10-13T00:53:50;28;25;
28647;PMS5003;17137;51.494;-0.262;2023-10-13T00:54:20;28;25;
28647;PMS5003;17137;51.494;-0.262;2023-10-13T00:54:51;28;25;
28647;PMS5003;17137;51.494;-0.262;2023-10-13T00:55:22;28;26;
28647;PMS5003;17137;51.494;-0.262;2023-10-13T00:55:53;27;24;
28647;PMS5003;17137;51.494;-0.262;2023-10-13T00:56:24;27;24;
28647;PMS5003;17137;51.494;-0.262;2023-10-13T00:56:56;27;24;
28647;PMS5003;17137;51.494;-0.262;2023-10-13T00:57:27;24;22;
28647;PMS5003;17137;51.494;-0.262;2023-10-13T00:57:58;24;22;
28647;PMS5003;17137;51.494;-0.262;2023-10-13T00:58:29;24;22;
28647;PMS5003;17137;51.494;-0.262;2023-10-13T00:59:00;22;22;
28647;PMS5003;17137;51.494;-0.262;2023-10-13T00:59:30;22;22;
28647;PMS5003;17137;51.494;-0.262;2023-10-13T01:00:01;22;22;
28647;PMS5003;17137;51.494;-0.262;2023-10-13T01:00:31;20;20;
28647;PMS5003;17137;51.494;-0.262;2023-10-13T01:01:02;20;20;
28647;PMS5003;17137;51.494;-0.262;2023-10-13T01:01:33;20;20;
28647;PMS5003;17137;51.494;-0.262;2023-10-13T01:02:03;19;19;
28647;PMS5003;17137;51.494;-0.262;2023-10-13T01:02:39;19;19;
28647;PMS5003;17137;51.494;-0.262;2023-10-13T01:03:09;19;19;
28647;PMS5003;17137;51.494;-0.262;2023-10-13T01:03:39;21;21;
28647;PMS5003;17137;51.494;-0.262;2023-10-13T01:04:10;21;21;
28647;PMS5003;17137;51.494;-0.262;2023-10-13T01:04:46;21;21;
28647;PMS5003;17137;51.494;-0.262;2023-10-13T01:05:17;20;20;
28647;PMS5003;17137;51.494;-0.262;2023-10-13T01:05:47;20;20;
28647;PMS5003;17137;51.494;-0.262;2023-10-13T01:06:17;20;20;
28647;PMS5003;17137;51.494;-0.262;2023-10-13T01:06:48;18;18;
28647;PMS5003;17137;51.494;-0.262;2023-10-13T01:07:48;19;19;
28647;PMS5003;17137;51.494;-0.262;2023-10-13T01:08:19;19;19;
28647;PMS5003;17137;51.494;-0.262;2023-10-13T01:09:01;19;19;
28647;PMS5003;17137;51.494;-0.262;2023-10-13T01:09:39;19;19;
28647;PMS5003;17137;51.494;-0.262;2023-10-13T01:10:10;19;19;
28647;PMS5003;17137;51.494;-0.262;2023-10-13T01:10:41;19;19;
28647;PMS5003;17137;51.494;-0.262;2023-10-13T01:11:12;19;19;
28647;PMS5003;17137;51.494;-0.262;2023-10-13T01:11:48;20;20;
28647;PMS5003;17137;51.494;-0.262;2023-10-13T01:12:20;20;20;
28647;PMS5003;17137;51.494;-0.262;2023-10-13T01:12:50;20;20;
28647;PMS5003;17137;51.494;-0.262;2023-10-13T01:13:20;22;22;
28647;PMS5003;17137;51.494;-0.262;2023-10-13T01:13:51;22;22;
28647;PMS5003;17137;51.494;-0.262;2023-10-13T01:14:33;22;22;
28647;PMS5003;17137;51.494;-0.262;2023-10-13T01:15:14;22;22;
28647;PMS5003;17137;51.494;-0.262;2023-10-13T01:16:02;22;22;
28647;PMS5003;17137;51.494;-0.262;2023-10-13T01:16:38;22;22;
28647;PMS5003;17137;51.494;-0.262;2023-10-13T01:17:13;22;22;
28647;PMS5003;17137;51.494;-0.262;2023-10-13T01:17:44;21;21;
28647;PMS5003;17137;51.494;-0.262;2023-10-13T01:18:14;21;21;
28647;PMS5003;17137;51.494;-0.262;2023-10-13T01:18:45;22;22;
28647;PMS5003;17137;51.494;-0.262;2023-10-13T01:19:21;22;22;
28647;PMS5003;17137;51.494;-0.262;2023-10-13T01:19:57;22;22;
28647;PMS5003;17137;51.494;-0.262;2023-10-13T01:20:41;22;22;
28647;PMS5003;17137;51.494;-0.262;2023-10-13T01:21:12;22;22;
28647;PMS5003;17137;51.494;-0.262;2023-10-13T01:21:42;22;22;
28647;PMS5003;17137;51.494;-0.262;2023-10-13T01:22:12;22;22;
28647;PMS5003;17137;51.494;-0.262;2023-10-13T01:22:42;22;22;
28647;PMS5003;17137;51.494;-0.262;2023-10-13T01:23:13;22;22;
28647;PMS5003;17137;51.494;-0.262;2023-10-13T01:23:43;22;22;
28647;PMS5003;17137;51.494;-0.262;2023-10-13T01:24:14;22;22;
28647;PMS5003;17137;51.494;-0.262;2023-10-13T01:24:44;22;22;
28647;PMS5003;17137;51.494;-0.262;2023-10-13T01:25:14;21;21;
28647;PMS5003;17137;51.494;-0.262;2023-10-13T01:25:45;21;21;
28647;PMS5003;17137;51.494;-0.262;2023-10-13T01:26:15;21;21;
28647;PMS5003;17137;51.494;-0.262;2023-10-13T01:26:46;21;21;
28647;PMS5003;17137;51.494;-0.262;2023-10-13T01:27:16;21;21;
28647;PMS5003;17137;51.494;-0.262;2023-10-13T01:27:46;21;21;
28647;PMS5003;17137;51.494;-0.262;2023-10-13T01:28:17;22;21;
28647;PMS5003;17137;51.494;-0.262;2023-10-13T01:28:47;24;22;
28647;PMS5003;17137;51.494;-0.262;2023-10-13T01:29:18;24;22;
28647;PMS5003;17137;51.494;-0.262;2023-10-13T01:29:48;25;24;
28647;PMS5003;17137;51.494;-0.262;2023-10-13T01:30:18;26;24;
28647;PMS5003;17137;51.494;-0.262;2023-10-13T01:30:49;27;25;
28647;PMS5003;17137;51.494;-0.262;2023-10-13T01:31:19;29;26;
28647;PMS5003;17137;51.494;-0.262;2023-10-13T01:31:49;30;27;
28647;PMS5003;17137;51.494;-0.262;2023-10-13T01:32:20;30;28;
28647;PMS5003;17137;51.494;-0.262;2023-10-13T01:32:52;31;30;
28647;PMS5003;17137;51.494;-0.262;2023-10-13T01:33:23;30;30;
28647;PMS5003;17137;51.494;-0.262;2023-10-13T01:33:53;29;29;
28647;PMS5003;17137;51.494;-0.262;2023-10-13T01:34:24;30;30;
28647;PMS5003;17137;51.494;-0.262;2023-10-13T01:34:54;30;30;
28647;PMS5003;17137;51.494;-0.262;2023-10-13T01:35:24;30;30;
28647;PMS5003;17137;51.494;-0.262;2023-10-13T01:35:55;30;29;
28647;PMS5003;17137;51.494;-0.262;2023-10-13T01:36:26;30;29;
28647;PMS5003;17137;51.494;-0.262;2023-10-13T01:36:57;30;28;
28647;PMS5003;17137;51.494;-0.262;2023-10-13T01:37:27;27;27;
28647;PMS5003;17137;51.494;-0.262;2023-10-13T01:37:57;27;27;
28647;PMS5003;17137;51.494;-0.262;2023-10-13T01:38:27;27;27;
28647;PMS5003;17137;51.494;-0.262;2023-10-13T01:38:57;26;26;
28647;PMS5003;17137;51.494;-0.262;2023-10-13T01:39:27;26;26;
28647;PMS5003;17137;51.494;-0.262;2023-10-13T01:39:58;26;26;
28647;PMS5003;17137;51.494;-0.262;2023-10-13T01:40:28;25;25;
28647;PMS5003;17137;51.494;-0.262;2023-10-13T01:40:58;25;25;
28647;PMS5003;17137;51.494;-0.262;2023-10-13T01:41:28;25;25;
28647;PMS5003;17137;51.494;-0.262;2023-10-13T01:41:59;27;24;
28647;PMS5003;17137;51.494;-0.262;2023-10-13T01:42:29;27;25;
28647;PMS5003;17137;51.494;-0.262;2023-10-13T01:42:59;27;25;
28647;PMS5003;17137;51.494;-0.262;2023-10-13T01:43:29;30;26;
28647;PMS5003;17137;51.494;-0.262;2023-10-13T01:43:59;30;26;
28647;PMS5003;17137;51.494;-0.262;2023-10-13T01:44:29;30;26;
28647;PMS5003;17137;51.494;-0.262;2023-10-13T01:45:00;30;26;
28647;PMS5003;17137;51.494;-0.262;2023-10-13T01:45:30;30;26;
28647;PMS5003;17137;51.494;-0.262;2023-10-13T01:46:00;29;26;
28647;PMS5003;17137;51.494;-0.262;2023-10-13T01:46:30;29;24;
28647;PMS5003;17137;51.494;-0.262;2023-10-13T01:47:01;29;24;
28647;PMS5003;17137;51.494;-0.262;2023-10-13T01:47:31;29;24;
28647;PMS5003;17137;51.494;-0.262;2023-10-13T01:48:01;31;26;
28647;PMS5003;17137;51.494;-0.262;2023-10-13T01:48:32;29;24;
28647;PMS5003;17137;51.494;-0.262;2023-10-13T01:49:02;32;25;
28647;PMS5003;17137;51.494;-0.262;2023-10-13T01:49:32;33;25;
28647;PMS5003;17137;51.494;-0.262;2023-10-13T01:50:03;35;26;
28647;PMS5003;17137;51.494;-0.262;2023-10-13T01:50:36;35;26;
28647;PMS5003;17137;51.494;-0.262;2023-10-13T01:51:06;33;26;
28647;PMS5003;17137;51.494;-0.262;2023-10-13T01:51:36;31;26;
28647;PMS5003;17137;51.494;-0.262;2023-10-13T01:52:06;30;25;
28647;PMS5003;17137;51.494;-0.262;2023-10-13T01:52:37;30;26;
28647;PMS5003;17137;51.494;-0.262;2023-10-13T01:53:07;29;25;
28647;PMS5003;17137;51.494;-0.262;2023-10-13T01:53:37;30;26;
28647;PMS5003;17137;51.494;-0.262;2023-10-13T01:54:08;29;29;
28647;PMS5003;17137;51.494;-0.262;2023-10-13T01:54:38;29;29;
28647;PMS5003;17137;51.494;-0.262;2023-10-13T01:55:09;29;29;
28647;PMS5003;17137;51.494;-0.262;2023-10-13T01:55:39;29;29;
28647;PMS5003;17137;51.494;-0.262;2023-10-13T01:56:09;29;28;
28647;PMS5003;17137;51.494;-0.262;2023-10-13T01:56:40;29;29;
28647;PMS5003;17137;51.494;-0.262;2023-10-13T01:57:10;29;28;
28647;PMS5003;17137;51.494;-0.262;2023-10-13T01:57:40;28;27;
28647;PMS5003;17137;51.494;-0.262;2023-10-13T01:58:11;30;28;
28647;PMS5003;17137;51.494;-0.262;2023-10-13T01:58:41;30;30;
28647;PMS5003;17137;51.494;-0.262;2023-10-13T01:59:11;31;30;
28647;PMS5003;17137;51.494;-0.262;2023-10-13T01:59:42;31;30;
28647;PMS5003;17137;51.494;-0.262;2023-10-13T02:00:13;30;28;
28647;PMS5003;17137;51.494;-0.262;2023-10-13T02:00:45;31;31;
28647;PMS5003;17137;51.494;-0.262;2023-10-13T02:01:16;31;31;
28647;PMS5003;17137;51.494;-0.262;2023-10-13T02:01:46;31;31;
28647;PMS5003;17137;51.494;-0.262;2023-10-13T02:02:16;31;31;
28647;PMS5003;17137;51.494;-0.262;2023-10-13T02:02:47;32;32;
28647;PMS5003;17137;51.494;-0.262;2023-10-13T02:03:17;30;30;
28647;PMS5003;17137;51.494;-0.262;2023-10-13T02:03:47;30;30;
28647;PMS5003;17137;51.494;-0.262;2023-10-13T02:04:18;31;31;
28647;PMS5003;17137;51.494;-0.262;2023-10-13T02:04:48;32;32;
28647;PMS5003;17137;51.494;-0.262;2023-10-13T02:05:18;32;32;
28647;PMS5003;17137;51.494;-0.262;2023-10-13T02:05:49;32;32;
28647;PMS5003;17137;51.494;-0.262;2023-10-13T02:06:19;31;31;
28647;PMS5003;17137;51.494;-0.262;2023-10-13T02:06:49;31;31;
28647;PMS5003;17137;51.494;-0.262;2023-10-13T02:07:19;31;31;
28647;PMS5003;17137;51.494;-0.262;2023-10-13T02:07:49;32;31;
28647;PMS5003;17137;51.494;-0.262;2023-10-13T02:08:20;32;31;
28647;PMS5003;17137;51.494;-0.262;2023-10-13T02:08:51;32;31;
28647;PMS5003;17137;51.494;-0.262;2023-10-13T02:09:21;32;31;
28647;PMS5003;17137;51.494;-0.262;2023-10-13T02:09:51;31;30;
28647;PMS5003;17137;51.494;-0.262;2023-10-13T02:10:22;31;30;
28647;PMS5003;17137;51.494;-0.262;2023-10-13T02:10:52;30;29;
28647;PMS5003;17137;51.494;-0.262;2023-10-13T02:11:24;30;29;
28647;PMS5003;17137;51.494;-0.262;2023-10-13T02:11:54;30;29;
28647;PMS5003;17137;51.494;-0.262;2023-10-13T02:12:24;29;27;
28647;PMS5003;17137;51.494;-0.262;2023-10-13T02:12:55;29;27;
28647;PMS5003;17137;51.494;-0.262;2023-10-13T02:13:25;28;27;
28647;PMS5003;17137;51.494;-0.262;2023-10-13T02:13:56;27;26;
28647;PMS5003;17137;51.494;-0.262;2023-10-13T02:14:26;27;26;
28647;PMS5003;17137;51.494;-0.262;2023-10-13T02:14:56;26;25;
28647;PMS5003;17137;51.494;-0.262;2023-10-13T02:15:26;27;26;
28647;PMS5003;17137;51.494;-0.262;2023-10-13T02:15:57;27;26;
28647;PMS5003;17137;51.494;-0.262;2023-10-13T02:16:27;27;26;
28647;PMS5003;17137;51.494;-0.262;2023-10-13T02:16:57;25;24;
28647;PMS5003;17137;51.494;-0.262;2023-10-13T02:17:28;25;24;
28647;PMS5003;17137;51.494;-0.262;2023-10-13T02:17:58;25;24;
28647;PMS5003;17137;51.494;-0.262;2023-10-13T02:18:28;25;24;
28647;PMS5003;17137;51.494;-0.262;2023-10-13T02:18:58;25;24;
28647;PMS5003;17137;51.494;-0.262;2023-10-13T02:19:28;25;24;
28647;PMS5003;17137;51.494;-0.262;2023-10-13T02:19:59;23;22;
28647;PMS5003;17137;51.494;-0.262;2023-10-13T02:20:29;23;22;
28647;PMS5003;17137;51.494;-0.262;2023-10-13T02:21:02;23;22;
28647;PMS5003;17137;51.494;-0.262;2023-10-13T02:21:33;26;23;
28647;PMS5003;17137;51.494;-0.262;2023-10-13T02:22:04;25;23;
28647;PMS5003;17137;51.494;-0.262;2023-10-13T02:22:35;25;23;
28647;PMS5003;17137;51.494;-0.262;2023-10-13T02:23:10;24;23;
28647;PMS5003;17137;51.494;-0.262;2023-10-13T02:23:40;23;22;
28647;PMS5003;17137;51.494;-0.262;2023-10-13T02:24:11;23;22;
28647;PMS5003;17137;51.494;-0.262;2023-10-13T02:24:41;22;21;
28647;PMS5003;17137;51.494;-0.262;2023-10-13T02:25:12;22;21;
28647;PMS5003;17137;51.494;-0.262;2023-10-13T02:25:42;22;21;
28647;PMS5003;17137;51.494;-0.262;2023-10-13T02:26:12;23;22;
28647;PMS5003;17137;51.494;-0.262;2023-10-13T02:26:43;23;22;
28647;PMS5003;17137;51.494;-0.262;2023-10-13T02:27:18;23;22;
28647;PMS5003;17137;51.494;-0.262;2023-10-13T02:27:49;24;23;
28647;PMS5003;17137;51.494;-0.262;2023-10-13T02:28:19;24;23;
28647;PMS5003;17137;51.494;-0.262;2023-10-13T02:28:49;24;23;
28647;PMS5003;17137;51.494;-0.262;2023-10-13T02:29:19;25;23;
28647;PMS5003;17137;51.494;-0.262;2023-10-13T02:29:49;25;23;
28647;PMS5003;17137;51.494;-0.262;2023-10-13T02:30:20;25;23;
28647;PMS5003;17137;51.494;-0.262;2023-10-13T02:30:50;25;24;
28647;PMS5003;17137;51.494;-0.262;2023-10-13T02:31:20;25;24;
28647;PMS5003;17137;51.494;-0.262;2023-10-13T02:31:50;25;24;
28647;PMS5003;17137;51.494;-0.262;2023-10-13T02:32:20;27;24;
28647;PMS5003;17137;51.494;-0.262;2023-10-13T02:32:51;27;24;
28647;PMS5003;17137;51.494;-0.262;2023-10-13T02:33:21;27;24;
28647;PMS5003;17137;51.494;-0.262;2023-10-13T02:33:51;26;24;
28647;PMS5003;17137;51.494;-0.262;2023-10-13T02:34:21;26;24;
28647;PMS5003;17137;51.494;-0.262;2023-10-13T02:34:51;26;24;
28647;PMS5003;17137;51.494;-0.262;2023-10-13T02:35:22;28;25;
28647;PMS5003;17137;51.494;-0.262;2023-10-13T02:35:52;28;25;
28647;PMS5003;17137;51.494;-0.262;2023-10-13T02:36:22;28;25;
28647;PMS5003;17137;51.494;-0.262;2023-10-13T02:36:52;27;24;
28647;PMS5003;17137;51.494;-0.262;2023-10-13T02:37:22;27;24;
28647;PMS5003;17137;51.494;-0.262;2023-10-13T02:37:52;27;24;
28647;PMS5003;17137;51.494;-0.262;2023-10-13T02:38:23;27;24;
28647;PMS5003;17137;51.494;-0.262;2023-10-13T02:38:53;27;24;
28647;PMS5003;17137;51.494;-0.262;2023-10-13T02:39:23;27;24;
28647;PMS5003;17137;51.494;-0.262;2023-10-13T02:39:53;29;25;
28647;PMS5003;17137;51.494;-0.262;2023-10-13T02:40:24;29;25;
28647;PMS5003;17137;51.494;-0.262;2023-10-13T02:40:59;29;25;
28647;PMS5003;17137;51.494;-0.262;2023-10-13T02:41:29;28;25;
28647;PMS5003;17137;51.494;-0.262;2023-10-13T02:41:59;29;25;
28647;PMS5003;17137;51.494;-0.262;2023-10-13T02:42:30;29;25;
28647;PMS5003;17137;51.494;-0.262;2023-10-13T02:43:00;28;24;
28647;PMS5003;17137;51.494;-0.262;2023-10-13T02:43:30;28;25;
28647;PMS5003;17137;51.494;-0.262;2023-10-13T02:44:00;29;25;
28647;PMS5003;17137;51.494;-0.262;2023-10-13T02:44:31;29;25;
28647;PMS5003;17137;51.494;-0.262;2023-10-13T02:45:01;29;25;
28647;PMS5003;17137;51.494;-0.262;2023-10-13T02:45:32;30;26;
28647;PMS5003;17137;51.494;-0.262;2023-10-13T02:46:03;28;25;
28647;PMS5003;17137;51.494;-0.262;2023-10-13T02:46:34;28;26;
28647;PMS5003;17137;51.494;-0.262;2023-10-13T02:47:04;28;27;
28647;PMS5003;17137;51.494;-0.262;2023-10-13T02:47:35;29;27;
28647;PMS5003;17137;51.494;-0.262;2023-10-13T02:48:05;29;27;
28647;PMS5003;17137;51.494;-0.262;2023-10-13T02:48:36;29;27;
28647;PMS5003;17137;51.494;-0.262;2023-10-13T02:49:06;29;27;
28647;PMS5003;17137;51.494;-0.262;2023-10-13T02:49:36;29;27;
28647;PMS5003;17137;51.494;-0.262;2023-10-13T02:50:06;29;27;
28647;PMS5003;17137;51.494;-0.262;2023-10-13T02:50:39;27;25;
28647;PMS5003;17137;51.494;-0.262;2023-10-13T02:51:10;27;25;
28647;PMS5003;17137;51.494;-0.262;2023-10-13T02:51:40;27;25;
28647;PMS5003;17137;51.494;-0.262;2023-10-13T02:52:10;27;25;
28647;PMS5003;17137;51.494;-0.262;2023-10-13T02:52:40;27;25;
28647;PMS5003;17137;51.494;-0.262;2023-10-13T02:53:11;27;25;
28647;PMS5003;17137;51.494;-0.262;2023-10-13T02:53:41;25;25;
28647;PMS5003;17137;51.494;-0.262;2023-10-13T02:54:12;25;25;
28647;PMS5003;17137;51.494;-0.262;2023-10-13T02:54:43;25;25;
28647;PMS5003;17137;51.494;-0.262;2023-10-13T02:55:13;26;25;
28647;PMS5003;17137;51.494;-0.262;2023-10-13T02:55:59;26;25;
28647;PMS5003;17137;51.494;-0.262;2023-10-13T02:56:29;26;25;
28647;PMS5003;17137;51.494;-0.262;2023-10-13T02:56:59;24;24;
28647;PMS5003;17137;51.494;-0.262;2023-10-13T02:57:29;24;24;
28647;PMS5003;17137;51.494;-0.262;2023-10-13T02:58:00;24;24;
28647;PMS5003;17137;51.494;-0.262;2023-10-13T02:58:30;25;24;
28647;PMS5003;17137;51.494;-0.262;2023-10-13T02:59:00;25;24;
28647;PMS5003;17137;51.494;-0.262;2023-10-13T02:59:31;25;24;
28647;PMS5003;17137;51.494;-0.262;2023-10-13T03:00:02;26;25;
28647;PMS5003;17137;51.494;-0.262;2023-10-13T03:00:33;26;25;
28647;PMS5003;17137;51.494;-0.262;2023-10-13T03:01:05;26;25;
28647;PMS5003;17137;51.494;-0.262;2023-10-13T03:01:36;24;23;
28647;PMS5003;17137;51.494;-0.262;2023-10-13T03:02:07;24;23;
28647;PMS5003;17137;51.494;-0.262;2023-10-13T03:02:37;24;23;
28647;PMS5003;17137;51.494;-0.262;2023-10-13T03:03:08;23;22;
28647;PMS5003;17137;51.494;-0.262;2023-10-13T03:03:38;23;22;
28647;PMS5003;17137;51.494;-0.262;2023-10-13T03:04:08;23;22;
28647;PMS5003;17137;51.494;-0.262;2023-10-13T03:04:38;23;22;
28647;PMS5003;17137;51.494;-0.262;2023-10-13T03:05:08;23;22;
28647;PMS5003;17137;51.494;-0.262;2023-10-13T03:05:38;23;22;
28647;PMS5003;17137;51.494;-0.262;2023-10-13T03:06:09;24;24;
28647;PMS5003;17137;51.494;-0.262;2023-10-13T03:06:39;24;24;
28647;PMS5003;17137;51.494;-0.262;2023-10-13T03:07:09;24;24;
28647;PMS5003;17137;51.494;-0.262;2023-10-13T03:07:39;24;24;
28647;PMS5003;17137;51.494;-0.262;2023-10-13T03:08:10;24;24;
28647;PMS5003;17137;51.494;-0.262;2023-10-13T03:08:40;24;24;
28647;PMS5003;17137;51.494;-0.262;2023-10-13T03:09:10;24;24;
28647;PMS5003;17137;51.494;-0.262;2023-10-13T03:09:41;24;24;
28647;PMS5003;17137;51.494;-0.262;2023-10-13T03:10:11;24;24;
28647;PMS5003;17137;51.494;-0.262;2023-10-13T03:10:41;24;24;
28647;PMS5003;17137;51.494;-0.262;2023-10-13T03:11:11;24;24;
28647;PMS5003;17137;51.494;-0.262;2023-10-13T03:11:42;24;24;
28647;PMS5003;17137;51.494;-0.262;2023-10-13T03:12:12;25;25;
28647;PMS5003;17137;51.494;-0.262;2023-10-13T03:12:42;25;25;
28647;PMS5003;17137;51.494;-0.262;2023-10-13T03:13:12;25;25;
28647;PMS5003;17137;51.494;-0.262;2023-10-13T03:13:43;26;25;
28647;PMS5003;17137;51.494;-0.262;2023-10-13T03:14:13;26;25;
28647;PMS5003;17137;51.494;-0.262;2023-10-13T03:14:43;26;25;
28647;PMS5003;17137;51.494;-0.262;2023-10-13T03:15:14;25;24;
28647;PMS5003;17137;51.494;-0.262;2023-10-13T03:15:44;25;24;
28647;PMS5003;17137;51.494;-0.262;2023-10-13T03:16:14;25;24;
28647;PMS5003;17137;51.494;-0.262;2023-10-13T03:16:45;26;24;
28647;PMS5003;17137;51.494;-0.262;2023-10-13T03:17:15;26;24;
28647;PMS5003;17137;51.494;-0.262;2023-10-13T03:17:46;26;24;
28647;PMS5003;17137;51.494;-0.262;2023-10-13T03:18:16;26;25;
28647;PMS5003;17137;51.494;-0.262;2023-10-13T03:18:47;26;25;
28647;PMS5003;17137;51.494;-0.262;2023-10-13T03:19:18;26;25;
28647;PMS5003;17137;51.494;-0.262;2023-10-13T03:19:48;26;25;
28647;PMS5003;17137;51.494;-0.262;2023-10-13T03:20:18;26;25;
28647;PMS5003;17137;51.494;-0.262;2023-10-13T03:20:48;26;25;
28647;PMS5003;17137;51.494;-0.262;2023-10-13T03:21:19;26;24;
28647;PMS5003;17137;51.494;-0.262;2023-10-13T03:21:50;26;24;
28647;PMS5003;17137;51.494;-0.262;2023-10-13T03:22:20;26;24;